Aviation Digital Data Service (ADDS)

Output produced by METARs form (0804 UTC 08 February 2016)
found at http://aviationweather.gov/adds/metars/
 
KDTW 080535Z 0806/0912 23007KT P6SM SCT035 BKN070 
     TEMPO 0806/0808 OVC035 
     FM081200 23007KT P6SM BKN018 OVC028 
     FM081800 26007KT P6SM SCT028 BKN050 
     FM090200 28006KT P6SM -SHSN SCT035 BKN045